Pella, IA

5:01 PM CDT on August 23, 2016 (GMT -0500)
| | Change Station

Elev -9999 ft 0.00 °N, 0.00 °E | Updated

Cloudy
Cloudy
75 °F
Feels Like 75 °F
N
11
Wind Variable Wind from SSE
Gusts 18 mph

Today
High -- | Low -- °F
--% Chance of Precip.
Yesterday
High -- | Low -- °F
Precip. -- in
Pressure 29.97 in
Visibility 10.0 miles
Clouds Mostly Cloudy 1900 ft
Overcast 3900 ft
Dew Point 71 °F
Humidity 86%
Rainfall --
Snow Depth Not available.
6:29 AM 7:58 PM
Waning Gibbous, 64% visible
METAR KOXV 232155Z AUTO 17014G20KT 10SM BKN019 OVC039 25/21 A2997 RMK AO2
Pressure 29.97 in
Visibility 10.0 miles
Clouds Mostly Cloudy 1900 ft
Overcast 3900 ft
Dew Point 71 °F
Humidity 86%
Rainfall --
Snow Depth Not available.
6:29 AM 7:58 PM
Waning Gibbous, 64% visible
METAR KOXV 232155Z AUTO 17014G20KT 10SM BKN019 OVC039 25/21 A2997 RMK AO2

10-Day Weather Forecast

Almanac

Astronomy

Aug. 23, 2016 Rise Set
Actual Time
Civil Twilight
Nautical Twilight
Astronomical Twilight
Moon
Length of Visible Light
Length of Day
Tomorrow will be .
, % of the Moon is Illuminated

Today's Extremes

State Highs State Lows

Community

WunderPhotos

Upload Photos

1,934,476 photos uploaded!

WunderBlog® & News

Nearby

Air Quality

  Air Quality AQ Index Pollutant
Not available.

Snow Depth

Station Depth Elevation

Earthquake Activity

City Distance Mag. Time & Date
Minimum magnitude displayed is 2.5.

Coastal Water Temperatures

Place Temperature

Stations

Nearby Weather Stations

Station Location Temp. Windchill Dew Point Humidity Wind Precip. Elev Updated Type
                   

Watches & Warnings

There are currently no watches in effect.